Kayenta, AZ

4:12 PM MDT on August 21, 2014 (GMT -0600)
Blanding | Change Station
CLOSE
Current Station
Airport
Location: Blanding,
Elevation: 5866 ft
Nearby Weather Stations

Elev 5866 ft 37.58 °N, 109.48 °W | Updated 17 minutes ago

Clear
Clear
80 °F
Feels Like 80 °F
N
6
Wind Variable Wind from WSW

Today
High -- | Low -- °F
--% Chance of Precip.
Yesterday
High -- | Low -- °F
Precip. -- in
6:43 AM 8:04 PM
Waning Crescent, 12% visible
Pressure 30.23 in
Visibility 10.0 miles
Clouds Clear
Dew Point 36 °F
Humidity 21%
Rainfall 0.00 in
Snow Depth Not available.
UV 8 out of 12
Pollen 7.70 out of 12
Air Quality Not available.
Flu Activity Not available.
METAR KBDG 212155Z AUTO 25005KT 10SM CLR 26/02 A3023 RMK AO1 T02640023

More Conditions Fewer Conditions

Pressure 30.23 in
Visibility 10.0 miles
Clouds Clear
Dew Point 36 °F
Humidity 21%
Rainfall 0.00 in
Snow Depth Not available.
UV 8 out of 12
Pollen 7.70 out of 12
Air Quality Not available.
Flu Activity Not available.
METAR KBDG 212155Z AUTO 25005KT 10SM CLR 26/02 A3023 RMK AO1 T02640023

More Conditions Fewer Conditions

10-Day Weather Forecast

Almanac

Astronomy

Aug. 21, 2014 Rise Set
Actual Time 6:43 AM MDT 8:04 PM MDT
Civil Twilight 6:16 AM MDT 8:31 PM MDT
Nautical Twilight 5:44 AM MDT 9:03 PM MDT
Astronomical Twilight 5:10 AM MDT 9:37 PM MDT
Moon 3:19 AM MDT 5:33 PM MDT
Length of Visible Light 14h 14m
Length of Day
13h 20m
Tomorrow will be 2m 7s shorter.
Waning Crescent, 12% of the Moon is Illuminated
Today
Waning Crescent
Aug 25
New
Sep 2
First Quarter
Sep 8
Full
Sep 15
Last Quarter

Today's Extremes

State Highs State Lows

Community

WunderPhotos

Upload Photos

1,746,032 photos uploaded!

WunderBlogs® & News

Nearby

Snow Depth

Station Depth Elevation
Snowslide Canyon 1 in 9730 ft
Mormon Mountain 0 in 7500 ft
White Horse Lake 0 in 7180 ft
Maverick Fork 0 in 9200 ft
Workman Creek 0 in 6900 ft

Earthquake Activity

City Distance Mag. Time & Date
No recent earthquake activity has been reported nearby.
Minimum magnitude displayed is 2.5.

Coastal Water Temperatures

Place Temperature
No Stations Reporting

Nearby Weather Stations